Time;durP1;ratioP1;P1;durP2;ratioP2;P2;SDS_P1;SDS_P2;PMS_P1;PMS_P2;Temp;Humidity;BMP_temperature;BMP_pressure;BME280_temperature;BME280_humidity;BME280_pressure;Samples;Min_cycle;Max_cycle;Signal;HPM_P1;HPM_P2
2021/10/28 00:12:17;;;;;;;20.15;14.80;;;;;;;13.90;52.98;102661.33;1730657;82;21060;-51
2021/10/28 00:14:44;;;;;;;20.08;14.30;;;;;;;13.83;52.76;102663.53;1730983;82;21534;-52
2021/10/28 00:17:16;;;;;;;19.00;14.07;;;;;;;13.78;52.67;102659.66;1731700;82;21630;-49
2021/10/28 00:19:44;;;;;;;19.98;14.60;;;;;;;13.76;52.72;102652.67;1731651;82;21511;-53
2021/10/28 00:22:12;;;;;;;18.70;13.95;;;;;;;13.77;52.61;102657.02;1735103;82;21026;-51
2021/10/28 00:24:39;;;;;;;20.90;14.63;;;;;;;13.80;52.46;102657.90;1735411;82;21510;-50
2021/10/28 00:27:06;;;;;;;21.93;14.63;;;;;;;13.81;52.46;102658.73;1735374;82;21479;-50
2021/10/28 00:29:33;;;;;;;21.20;15.13;;;;;;;13.81;52.25;102656.13;1735818;82;21501;-53
2021/10/28 00:32:03;;;;;;;20.50;15.88;;;;;;;13.77;52.11;102650.05;1731974;82;21511;-52
2021/10/28 00:34:30;;;;;;;22.80;14.65;;;;;;;13.74;52.25;102653.13;1738567;82;20990;-50
2021/10/28 00:36:57;;;;;;;24.32;16.02;;;;;;;13.72;52.44;102653.57;1737457;82;21058;-50
2021/10/28 00:39:24;;;;;;;19.42;14.80;;;;;;;13.70;52.81;102655.33;1725167;82;21471;-52
2021/10/28 00:41:52;;;;;;;22.48;15.53;;;;;;;13.69;52.88;102653.56;1741157;82;21030;-52
2021/10/28 00:44:19;;;;;;;20.17;14.45;;;;;;;13.68;52.91;102654.46;1734450;82;21045;-52
2021/10/28 00:46:46;;;;;;;24.05;15.08;;;;;;;13.69;52.92;102648.34;1728466;82;21022;-50
2021/10/28 00:49:13;;;;;;;22.27;15.48;;;;;;;13.69;53.08;102648.34;1742080;82;21022;-53
2021/10/28 00:51:41;;;;;;;26.20;15.78;;;;;;;13.70;53.07;102646.17;1735242;82;20999;-49
2021/10/28 00:54:12;;;;;;;20.65;14.87;;;;;;;13.70;53.12;102641.78;1735658;82;21045;-51
2021/10/28 00:56:41;;;;;;;22.13;15.83;;;;;;;13.71;53.10;102644.84;1735101;82;21030;-50
2021/10/28 00:59:08;;;;;;;19.37;14.95;;;;;;;13.70;53.06;102640.94;1735577;82;21396;-51
2021/10/28 01:01:36;;;;;;;21.90;15.70;;;;;;;13.69;53.05;102636.56;1735268;82;21046;-57
2021/10/28 01:04:04;;;;;;;23.52;15.80;;;;;;;13.68;53.10;102638.30;1737978;82;21502;-52
2021/10/28 01:06:32;;;;;;;25.25;16.05;;;;;;;13.69;53.07;102645.72;1738439;82;21006;-52
2021/10/28 01:08:58;;;;;;;21.90;16.25;;;;;;;13.68;53.21;102637.45;1737779;82;21537;-51
2021/10/28 01:11:26;;;;;;;21.17;15.95;;;;;;;13.68;53.31;102638.30;1731943;82;21070;-50
2021/10/28 01:13:55;;;;;;;24.05;14.95;;;;;;;13.67;53.27;102640.50;1726200;82;21019;-51
2021/10/28 01:16:21;;;;;;;23.83;15.60;;;;;;;13.68;53.24;102644.00;1722046;82;21050;-52
2021/10/28 01:18:48;;;;;;;22.90;16.20;;;;;;;13.69;53.04;102636.56;1730326;82;21614;-50
2021/10/28 01:21:14;;;;;;;22.10;16.32;;;;;;;13.68;52.94;102637.00;1729811;82;21015;-51
2021/10/28 01:23:41;;;;;;;21.68;16.17;;;;;;;13.70;52.99;102639.63;1727090;82;20996;-50
2021/10/28 01:26:11;;;;;;;22.70;16.30;;;;;;;13.68;52.88;102639.61;1717491;82;21007;-51
2021/10/28 01:29:05;;;;;;;21.77;16.20;;;;;;;13.64;52.85;102635.27;1728878;82;21538;-52
2021/10/28 01:31:33;;;;;;;26.30;15.35;;;;;;;13.63;52.73;102638.78;1673379;85;21077;-52
2021/10/28 01:34:04;;;;;;;20.75;14.95;;;;;;;13.61;52.78;102642.27;1678242;85;21006;-50
2021/10/28 01:36:31;;;;;;;23.60;15.70;;;;;;;13.60;52.73;102640.55;1673818;85;21002;-51
2021/10/28 01:38:58;;;;;;;23.22;15.50;;;;;;;13.59;52.65;102642.72;1679853;85;20974;-52
2021/10/28 01:41:28;;;;;;;22.85;16.57;;;;;;;13.59;52.59;102647.52;1679655;85;21066;-51
2021/10/28 01:43:58;;;;;;;24.00;16.12;;;;;;;13.60;52.50;102643.17;1671901;85;21013;-53
2021/10/28 01:46:24;;;;;;;24.02;15.63;;;;;;;13.59;52.49;102644.02;1677549;85;21558;-52
2021/10/28 01:48:51;;;;;;;24.07;16.57;;;;;;;13.57;52.28;102645.78;1679804;85;21069;-50
2021/10/28 01:51:22;;;;;;;24.50;16.60;;;;;;;13.54;52.17;102641.88;1678363;85;21025;-49
2021/10/28 01:53:49;;;;;;;22.20;16.15;;;;;;;13.52;52.16;102648.84;1678251;85;21049;-50
2021/10/28 01:56:17;;;;;;;27.37;16.17;;;;;;;13.50;52.19;102645.36;1674246;85;20994;-55
2021/10/28 01:58:43;;;;;;;22.52;16.50;;;;;;;13.48;52.08;102645.38;1679530;85;21021;-54
2021/10/28 02:01:10;;;;;;;21.35;16.25;;;;;;;13.46;52.20;102645.81;1680050;85;21069;-49
2021/10/28 02:03:37;;;;;;;21.97;15.72;;;;;;;13.46;52.32;102653.66;1679193;85;21070;-49
2021/10/28 02:06:04;;;;;;;20.65;15.60;;;;;;;13.49;52.41;102655.41;1677428;85;21065;-52
2021/10/28 02:08:31;;;;;;;20.68;15.45;;;;;;;13.51;52.42;102645.80;1702170;82;21491;-52
2021/10/28 02:10:58;;;;;;;19.95;14.83;;;;;;;13.51;52.29;102649.30;1736853;82;21530;-49
2021/10/28 02:13:27;;;;;;;20.95;14.80;;;;;;;13.49;52.13;102644.94;1733688;82;21035;-52
2021/10/28 02:15:54;;;;;;;19.95;14.85;;;;;;;13.45;51.98;102647.14;1727485;82;21121;-51
2021/10/28 02:18:22;;;;;;;19.52;14.13;;;;;;;13.43;51.94;102648.89;1726989;82;21563;-50
2021/10/28 02:20:48;;;;;;;19.92;14.75;;;;;;;13.42;51.79;102658.91;1727332;82;21058;-51
2021/10/28 02:23:15;;;;;;;20.60;15.08;;;;;;;13.39;51.67;102656.31;1727249;82;21003;-52
2021/10/28 02:25:43;;;;;;;18.80;14.58;;;;;;;13.36;51.76;102658.92;1725800;82;21441;-50
2021/10/28 02:28:09;;;;;;;22.65;16.30;;;;;;;13.34;51.78;102660.67;1730192;82;21070;-51
2021/10/28 02:30:36;;;;;;;21.27;15.55;;;;;;;13.30;51.91;102658.94;1730104;82;20999;-52
2021/10/28 02:33:03;;;;;;;20.75;16.05;;;;;;;13.27;51.98;102657.66;1727476;82;21507;-50
2021/10/28 02:35:30;;;;;;;22.50;15.75;;;;;;;13.23;52.11;102653.31;1727302;82;21062;-50
2021/10/28 02:37:57;;;;;;;22.67;16.23;;;;;;;13.20;52.41;102659.84;1727188;82;21717;-52
2021/10/28 02:40:25;;;;;;;26.57;17.48;;;;;;;13.16;52.55;102668.56;1721567;82;21578;-50
2021/10/28 02:42:52;;;;;;;24.75;16.75;;;;;;;13.10;52.74;102659.44;1729302;82;21042;-49
2021/10/28 02:45:18;;;;;;;24.12;16.67;;;;;;;13.09;52.67;102659.86;1730244;82;21071;-55
2021/10/28 02:47:45;;;;;;;20.85;16.35;;;;;;;13.11;52.74;102665.11;1729672;82;21106;-50
2021/10/28 02:50:12;;;;;;;23.57;17.35;;;;;;;13.08;52.75;102669.44;1727250;82;21059;-51
2021/10/28 02:52:41;;;;;;;23.45;17.32;;;;;;;13.06;52.86;102673.80;1727399;82;21507;-53
2021/10/28 02:55:09;;;;;;;25.25;17.42;;;;;;;13.03;52.96;102669.87;1727294;82;21546;-50
2021/10/28 02:57:35;;;;;;;25.43;17.25;;;;;;;13.01;53.07;102679.45;1727423;82;20991;-51
2021/10/28 03:00:03;;;;;;;23.12;17.57;;;;;;;13.02;53.07;102678.56;1727782;82;21023;-50
2021/10/28 03:02:30;;;;;;;19.80;16.73;;;;;;;13.02;53.01;102675.11;1723849;82;21054;-51
2021/10/28 03:04:58;;;;;;;24.07;18.32;;;;;;;13.03;52.87;102685.98;1730150;82;21003;-49
2021/10/28 03:07:25;;;;;;;23.00;17.65;;;;;;;13.02;53.13;102687.71;1729528;82;21064;-51
2021/10/28 03:09:52;;;;;;;23.62;16.40;;;;;;;13.03;53.15;102688.59;1728231;82;21456;-49
2021/10/28 03:12:19;;;;;;;22.77;18.07;;;;;;;13.01;53.06;102682.06;1729492;82;21328;-53
2021/10/28 03:27:53;;;;;;;22.02;16.23;;;;;;;12.89;53.55;102692.53;1672001;85;21063;-52
2021/10/28 03:30:20;;;;;;;25.55;18.30;;;;;;;12.88;53.60;102692.08;1671803;85;21062;-49
2021/10/28 03:32:47;;;;;;;25.20;17.87;;;;;;;12.87;53.54;102695.58;1672006;85;21544;-51
2021/10/28 03:35:15;;;;;;;25.17;18.45;;;;;;;12.88;53.58;102702.53;1672154;85;21050;-55
2021/10/28 03:51:24;;;;;;;28.80;17.32;;;;;;;12.73;53.51;102694.72;1671403;85;20992;-54
2021/10/28 04:06:48;;;;;;;28.50;20.12;;;;;;;12.69;53.76;102702.13;1681213;85;21128;-51
2021/10/28 04:17:26;;;;;;;25.48;18.65;;;;;;;12.62;53.67;102704.28;1669096;85;21051;-50
2021/10/28 04:30:22;;;;;;;23.92;18.67;;;;;;;12.59;54.17;102729.08;1670261;85;21089;-49
2021/10/28 04:32:50;;;;;;;25.25;18.95;;;;;;;12.60;54.04;102732.14;1669913;85;20983;-51
2021/10/28 04:35:17;;;;;;;24.80;18.32;;;;;;;12.59;54.07;102734.75;1688025;85;21007;-49
2021/10/28 04:37:45;;;;;;;25.77;17.95;;;;;;;12.60;53.99;102726.03;1703462;83;21002;-55
2021/10/28 04:40:13;;;;;;;27.10;18.75;;;;;;;12.60;53.98;102733.44;1705918;83;21033;-56
2021/10/28 04:42:40;;;;;;;23.55;18.00;;;;;;;12.61;53.96;102738.24;1706391;83;20979;-51
2021/10/28 04:45:08;;;;;;;23.62;17.75;;;;;;;12.62;53.96;102730.39;1707158;83;21545;-52
2021/10/28 04:47:36;;;;;;;24.25;17.87;;;;;;;12.61;53.84;102733.86;1709364;83;21006;-51
2021/10/28 04:50:05;;;;;;;23.20;18.57;;;;;;;12.62;53.84;102737.36;1709190;83;21026;-52
2021/10/28 04:52:33;;;;;;;27.47;17.20;;;;;;;12.61;53.80;102733.86;1708333;83;21049;-55
2021/10/28 04:55:00;;;;;;;26.68;18.37;;;;;;;12.60;53.79;102739.97;1706756;83;21057;-52
2021/10/28 04:57:27;;;;;;;27.37;18.25;;;;;;;12.58;53.83;102743.02;1708308;83;21557;-53
2021/10/28 04:59:53;;;;;;;24.65;18.35;;;;;;;12.56;53.87;102752.59;1703952;83;21077;-50
2021/10/28 05:02:21;;;;;;;25.05;18.80;;;;;;;12.53;53.85;102756.95;1711784;83;20998;-53
2021/10/28 05:04:48;;;;;;;26.68;19.05;;;;;;;12.51;53.98;102759.53;1693469;83;21082;-53
2021/10/28 05:07:16;;;;;;;28.98;18.55;;;;;;;12.48;54.13;102764.77;1707856;83;21043;-54
2021/10/28 05:09:43;;;;;;;24.23;18.98;;;;;;;12.49;54.26;102769.09;1708551;83;21013;-56
2021/10/28 05:12:10;;;;;;;26.00;18.90;;;;;;;12.52;54.28;102775.65;1719586;82;21055;-50
2021/10/28 05:14:37;;;;;;;25.97;19.12;;;;;;;12.52;54.33;102776.95;1738658;82;21062;-53
2021/10/28 05:17:05;;;;;;;25.45;18.80;;;;;;;12.53;54.45;102781.30;1731231;82;21094;-56
2021/10/28 05:19:37;;;;;;;26.52;20.02;;;;;;;12.56;54.59;102780.02;1735445;82;21010;-52
2021/10/28 05:22:04;;;;;;;24.82;18.55;;;;;;;12.58;54.59;102787.41;1731301;82;21070;-52
2021/10/28 05:24:31;;;;;;;28.98;19.77;;;;;;;12.58;54.60;102791.33;1736381;82;21491;-51
2021/10/28 05:26:58;;;;;;;27.55;19.85;;;;;;;12.55;54.72;102791.31;1738248;82;21002;-54
2021/10/28 05:29:25;;;;;;;26.62;21.23;;;;;;;12.54;54.80;102800.03;1738347;82;21030;-52
2021/10/28 05:31:52;;;;;;;31.90;21.12;;;;;;;12.51;54.65;102804.38;1734175;82;21042;-54
2021/10/28 05:34:20;;;;;;;28.25;20.25;;;;;;;12.49;54.78;102813.48;1725421;82;21513;-53
2021/10/28 05:36:46;;;;;;;28.27;20.65;;;;;;;12.46;54.81;102809.58;1738143;82;21015;-57
2021/10/28 05:39:13;;;;;;;26.50;20.20;;;;;;;12.43;54.96;102814.78;1738511;82;21078;-53
2021/10/28 05:41:40;;;;;;;27.58;20.75;;;;;;;12.42;54.96;102812.17;1735745;82;21510;-51
2021/10/28 05:44:07;;;;;;;24.87;20.20;;;;;;;12.41;55.04;102812.59;1737360;82;20979;-54
2021/10/28 05:46:33;;;;;;;25.85;19.85;;;;;;;12.45;55.17;102815.66;1737600;82;21506;-50
2021/10/28 05:49:00;;;;;;;28.45;19.55;;;;;;;12.55;54.96;102809.59;1733231;82;21050;-50
2021/10/28 05:51:27;;;;;;;24.65;19.65;;;;;;;12.65;54.49;102803.52;1735268;82;21030;-52
2021/10/28 05:53:54;;;;;;;21.68;18.60;;;;;;;12.74;54.41;102806.16;1735278;82;21051;-50
2021/10/28 05:56:22;;;;;;;26.30;20.00;;;;;;;12.88;54.27;102808.81;1735476;82;21010;-53
2021/10/28 05:58:48;;;;;;;26.30;19.02;;;;;;;12.99;53.83;102807.94;1731745;82;21053;-51
2021/10/28 06:01:15;;;;;;;27.77;20.02;;;;;;;13.06;53.47;102811.47;1734361;82;21027;-52
2021/10/28 06:03:42;;;;;;;27.82;20.50;;;;;;;13.13;53.17;102814.97;1730722;82;21003;-52
2021/10/28 06:06:09;;;;;;;26.50;20.05;;;;;;;13.18;53.09;102817.13;1735384;82;21101;-51
2021/10/28 06:08:36;;;;;;;24.55;19.20;;;;;;;13.23;52.84;102815.40;1734995;82;21018;-53
2021/10/28 06:11:04;;;;;;;24.50;19.92;;;;;;;13.28;52.65;102818.87;1737688;82;21038;-53
2021/10/28 06:13:31;;;;;;;24.72;19.77;;;;;;;13.33;52.54;102821.06;1738339;82;21106;-55
2021/10/28 06:15:58;;;;;;;24.63;18.48;;;;;;;13.41;52.28;102817.57;1737131;82;21475;-56
2021/10/28 06:20:55;;;;;;;28.73;19.32;;;;;;;13.56;51.74;102820.61;1734351;82;21039;-53
2021/10/28 06:23:22;;;;;;;24.30;20.32;;;;;;;13.56;51.74;102821.92;1738004;82;21018;-54
2021/10/28 06:25:48;;;;;;;26.90;19.85;;;;;;;13.55;51.81;102822.78;1738600;82;21014;-50
2021/10/28 06:28:15;;;;;;;22.37;18.57;;;;;;;13.56;51.75;102831.08;1736666;82;20978;-52
2021/10/28 06:30:42;;;;;;;23.80;18.92;;;;;;;13.58;51.69;102831.48;1735159;82;20999;-52
2021/10/28 06:33:16;;;;;;;21.90;18.00;;;;;;;13.58;51.55;102826.25;1735397;82;21526;-51
2021/10/28 06:35:39;;;;;;;23.12;18.37;;;;;;;13.61;51.58;102839.77;1731414;82;21030;-53
2021/10/28 06:38:06;;;;;;;27.87;19.02;;;;;;;13.60;51.57;102834.12;1735237;82;21018;-51
2021/10/28 06:40:33;;;;;;;25.45;19.15;;;;;;;13.58;51.76;102835.41;1737337;82;21070;-52
2021/10/28 06:43:00;;;;;;;24.02;19.27;;;;;;;13.59;51.75;102829.74;1738665;82;21034;-52
2021/10/28 06:45:26;;;;;;;26.17;19.20;;;;;;;13.60;51.86;102832.81;1734361;82;21014;-51
2021/10/28 06:47:53;;;;;;;19.80;16.80;;;;;;;13.63;51.89;102831.05;1738454;82;21031;-51
2021/10/28 06:50:20;;;;;;;24.27;18.90;;;;;;;13.64;51.86;102835.39;1737483;82;21042;-51
2021/10/28 06:52:58;;;;;;;22.75;18.30;;;;;;;13.65;51.91;102837.58;1735215;82;21491;-54
2021/10/28 07:03:28;;;;;;;25.60;19.92;;;;;;;13.68;52.25;102840.20;1739201;82;21010;-55
2021/10/28 07:05:59;;;;;;;23.10;19.42;;;;;;;13.69;52.34;102832.78;1741980;82;21011;-52
2021/10/28 07:08:24;;;;;;;30.25;18.92;;;;;;;13.72;52.41;102832.33;1732165;82;21023;-53
2021/10/28 07:10:54;;;;;;;29.52;20.77;;;;;;;13.81;52.44;102832.75;1736054;82;21559;-53
2021/10/28 07:13:24;;;;;;;24.30;19.32;;;;;;;13.88;52.22;102829.26;1730417;82;21563;-55
2021/10/28 07:15:55;;;;;;;23.02;20.25;;;;;;;13.93;52.16;102831.41;1725790;82;21063;-52
2021/10/28 07:26:30;;;;;;;27.30;22.00;;;;;;;14.07;52.27;102823.10;1627947;88;21055;-53
2021/10/28 07:34:11;;;;;;;25.15;21.15;;;;;;;14.18;52.36;102814.75;1629506;87;21139;-51
2021/10/28 07:38:11;;;;;;;27.65;20.70;;;;;;;14.23;52.49;102819.55;1629933;87;21599;-53
2021/10/28 08:22:24;;;;;;;32.40;23.02;;;;;;;14.81;51.73;102790.44;1647352;85;21048;-53
2021/10/28 08:30:28;;;;;;;27.10;22.45;;;;;;;14.93;51.69;102792.97;1665340;85;21014;-53
2021/10/28 08:32:55;;;;;;;27.80;22.00;;;;;;;14.95;51.89;102796.02;1659929;85;21082;-53
2021/10/28 08:35:22;;;;;;;25.68;22.10;;;;;;;14.99;51.61;102795.53;1662124;85;21554;-53
2021/10/28 08:37:56;;;;;;;29.25;22.17;;;;;;;15.03;51.66;102795.94;1655433;85;20990;-52
2021/10/28 08:40:20;;;;;;;24.92;21.68;;;;;;;15.07;51.74;102795.03;1640807;86;21070;-51
2021/10/28 08:42:47;;;;;;;29.85;22.82;;;;;;;15.11;51.61;102800.25;1645829;86;21066;-54
2021/10/28 08:45:16;;;;;;;31.75;23.73;;;;;;;15.15;51.54;102801.08;1644962;86;21118;-54
2021/10/28 08:47:55;;;;;;;28.95;22.02;;;;;;;15.20;51.62;102804.55;1590119;90;21543;-53
2021/10/28 09:24:25;;;;;;;28.92;22.67;;;;;;;15.53;51.04;102805.59;1441958;98;21127;-53
2021/10/28 09:27:14;;;;;;;31.90;22.93;;;;;;;15.58;51.05;102802.47;1440287;99;21150;-53
2021/10/28 09:29:50;;;;;;;28.85;22.37;;;;;;;15.64;51.01;102799.78;1440675;99;21126;-53
2021/10/28 09:32:38;;;;;;;28.95;20.48;;;;;;;15.70;50.83;102803.69;1439847;99;21139;-54
2021/10/28 09:44:07;;;;;;;28.70;20.72;;;;;;;15.85;49.77;102791.69;1467691;94;21619;-51
2021/10/28 09:46:47;;;;;;;28.80;22.67;;;;;;;15.92;49.89;102774.98;1463122;95;21205;-51
2021/10/28 10:00:18;;;;;;;22.85;18.12;;;;;;;16.23;48.84;102759.27;1400063;101;21109;-49
2021/10/28 10:02:53;;;;;;;25.82;19.75;;;;;;;16.29;48.61;102759.19;1398609;101;21137;-51
2021/10/28 10:07:45;;;;;;;23.45;19.98;;;;;;;16.40;48.34;102753.78;1412351;100;21142;-51
2021/10/28 10:10:20;;;;;;;24.50;19.42;;;;;;;16.48;48.31;102753.66;1407986;101;21206;-52
2021/10/28 10:12:48;;;;;;;26.70;19.20;;;;;;;16.56;47.77;102754.45;1409347;100;21639;-51
2021/10/28 10:15:15;;;;;;;22.95;18.45;;;;;;;16.64;47.37;102744.69;1422397;100;21141;-51
2021/10/28 10:17:51;;;;;;;22.85;18.77;;;;;;;16.72;47.12;102749.38;1426734;100;21161;-52
2021/10/28 10:20:20;;;;;;;20.45;17.95;;;;;;;16.77;47.04;102743.18;1420523;100;21137;-53
2021/10/28 10:23:00;;;;;;;22.15;17.30;;;;;;;16.83;46.76;102740.45;1398920;101;21291;-50
2021/10/28 10:26:12;;;;;;;21.65;18.67;;;;;;;16.88;46.68;102741.23;1427185;98;21217;-53
2021/10/28 11:31:04;;;;;;;16.80;14.40;;;;;;;17.96;44.51;102697.97;1404816;97;21198;-54
2021/10/28 12:01:45;;;;;;;20.25;17.92;;;;;;;18.21;45.01;102666.67;1731267;82;21047;-50
2021/10/28 12:45:54;;;;;;;22.10;17.10;;;;;;;18.30;46.55;102651.50;1736743;82;21028;-50
2021/10/28 12:53:41;;;;;;;25.32;18.98;;;;;;;18.37;46.79;102652.23;1696726;83;21547;-53
2021/10/28 13:51:28;;;;;;;21.60;18.57;;;;;;;18.07;47.75;102630.12;1420651;100;21278;-49
2021/10/28 14:21:00;;;;;;;23.50;19.20;;;;;;;17.88;48.76;102605.97;1729970;82;21121;-51
2021/10/28 14:23:39;;;;;;;21.30;18.40;;;;;;;17.91;48.93;102601.53;1727124;82;21508;-51
2021/10/28 15:28:23;;;;;;;33.67;27.65;;;;;;;17.65;50.08;102620.08;1714264;82;21554;-53
2021/10/28 15:36:22;;;;;;;29.70;24.15;;;;;;;17.56;50.13;102616.31;1727443;82;21023;-50
2021/10/28 15:38:57;;;;;;;29.92;23.10;;;;;;;17.53;50.16;102613.77;1726505;82;21063;-51
2021/10/28 15:41:37;;;;;;;27.00;22.32;;;;;;;17.47;50.16;102608.59;1726673;82;21086;-50
2021/10/28 15:59:42;;;;;;;27.13;20.25;;;;;;;17.30;49.78;102619.91;1668414;85;21600;-48
2021/10/28 16:23:50;;;;;;;23.67;18.92;;;;;;;17.13;49.67;102626.37;1702848;82;21034;-49
2021/10/28 16:26:17;;;;;;;23.05;18.27;;;;;;;17.09;49.84;102630.84;1730664;82;20999;-51
2021/10/28 16:28:44;;;;;;;23.50;18.62;;;;;;;17.06;50.02;102637.48;1717316;82;21069;-51
2021/10/28 16:31:16;;;;;;;30.35;21.20;;;;;;;17.03;50.12;102640.16;1728787;82;21041;-51
2021/10/28 16:33:44;;;;;;;25.32;21.02;;;;;;;17.00;50.21;102644.19;1727544;82;21566;-51
2021/10/28 16:36:11;;;;;;;27.07;21.82;;;;;;;16.98;50.21;102639.40;1728790;82;21054;-51
2021/10/28 16:38:38;;;;;;;32.78;24.98;;;;;;;16.95;50.17;102648.64;1728533;82;21032;-50
2021/10/28 16:41:05;;;;;;;31.50;24.65;;;;;;;16.93;49.94;102643.86;1727581;82;21467;-50
2021/10/28 16:43:32;;;;;;;33.30;25.85;;;;;;;16.91;49.82;102643.89;1727237;82;21039;-50
2021/10/28 16:45:59;;;;;;;35.43;26.05;;;;;;;16.90;49.66;102641.27;1723635;82;21063;-50
2021/10/28 16:48:25;;;;;;;39.63;27.85;;;;;;;16.88;49.61;102645.25;1726968;82;21026;-52
2021/10/28 16:50:52;;;;;;;34.63;27.87;;;;;;;16.88;49.41;102648.32;1729595;82;21035;-53
2021/10/28 16:53:20;;;;;;;41.58;29.32;;;;;;;16.84;49.36;102654.53;1730518;82;20992;-52
2021/10/28 16:55:47;;;;;;;39.78;30.12;;;;;;;16.81;49.33;102648.02;1730246;82;21019;-51
2021/10/28 16:58:14;;;;;;;37.25;28.20;;;;;;;16.79;49.32;102652.44;1727649;82;21051;-51
2021/10/28 17:00:41;;;;;;;40.15;30.25;;;;;;;16.76;49.35;102646.78;1727517;82;21030;-49
2021/10/28 17:03:07;;;;;;;41.28;28.77;;;;;;;16.70;49.49;102643.39;1727302;82;21499;-51
2021/10/28 17:05:34;;;;;;;38.35;28.65;;;;;;;16.68;49.54;102649.12;1722104;82;21058;-50
2021/10/28 17:08:01;;;;;;;46.40;30.70;;;;;;;16.65;49.67;102647.88;1729441;82;21094;-55
2021/10/28 17:10:28;;;;;;;39.83;28.85;;;;;;;16.61;49.73;102647.50;1730498;82;21062;-50
2021/10/28 17:12:57;;;;;;;38.73;28.50;;;;;;;16.57;49.84;102649.30;1702497;82;21051;-51
2021/10/28 17:15:25;;;;;;;30.27;25.32;;;;;;;16.56;49.94;102655.45;1737354;82;20999;-51
2021/10/28 17:17:53;;;;;;;31.90;25.68;;;;;;;16.55;49.98;102648.92;1727123;82;21566;-49
2021/10/28 17:20:20;;;;;;;35.52;26.05;;;;;;;16.54;50.05;102652.42;1736529;82;21073;-50
2021/10/28 17:22:48;;;;;;;32.58;25.35;;;;;;;16.53;50.08;102651.55;1738459;82;21019;-50
2021/10/28 17:25:19;;;;;;;29.18;23.87;;;;;;;16.52;50.09;102654.21;1738569;82;21486;-50
2021/10/28 17:27:48;;;;;;;28.38;21.57;;;;;;;16.51;50.14;102653.78;1734466;82;21062;-50
2021/10/28 17:30:15;;;;;;;30.65;22.70;;;;;;;16.50;50.20;102659.50;1738488;82;21003;-51
2021/10/28 17:32:44;;;;;;;26.42;21.35;;;;;;;16.49;50.21;102660.78;1735884;82;21499;-52
2021/10/28 17:35:11;;;;;;;28.90;23.10;;;;;;;16.49;50.25;102654.21;1727626;82;21530;-51
2021/10/28 17:37:38;;;;;;;29.25;21.95;;;;;;;16.48;50.20;102657.75;1738750;82;20963;-49
2021/10/28 17:40:06;;;;;;;26.52;21.70;;;;;;;16.47;50.21;102656.00;1738203;82;20974;-52
2021/10/28 17:42:34;;;;;;;28.12;22.75;;;;;;;16.44;50.24;102652.12;1735900;82;21526;-51
2021/10/28 17:45:02;;;;;;;24.23;21.42;;;;;;;16.41;50.30;102648.22;1736385;82;21482;-51
2021/10/28 17:47:30;;;;;;;22.22;18.92;;;;;;;16.37;50.36;102649.16;1736799;82;21038;-49
2021/10/28 17:49:57;;;;;;;21.82;18.40;;;;;;;16.33;50.51;102648.34;1735881;82;21034;-49
2021/10/28 17:52:24;;;;;;;19.07;17.07;;;;;;;16.30;50.60;102656.27;1735479;82;20975;-50
2021/10/28 17:54:51;;;;;;;21.00;16.70;;;;;;;16.26;50.73;102647.57;1727346;82;21019;-52
2021/10/28 17:57:17;;;;;;;21.25;18.12;;;;;;;16.25;50.81;102647.60;1734734;82;21010;-50
2021/10/28 17:59:45;;;;;;;22.25;17.07;;;;;;;16.24;50.85;102653.30;1713806;82;21002;-51
2021/10/28 18:02:12;;;;;;;19.85;17.70;;;;;;;16.23;50.81;102654.64;1741913;82;21026;-50
2021/10/28 18:04:39;;;;;;;20.20;18.02;;;;;;;16.21;50.81;102653.36;1735543;82;21025;-49
2021/10/28 18:07:07;;;;;;;20.32;16.65;;;;;;;16.20;50.79;102651.61;1736969;82;21014;-49
2021/10/28 18:09:35;;;;;;;20.20;16.87;;;;;;;16.21;50.78;102659.92;1700496;82;21499;-49
2021/10/28 18:12:02;;;;;;;20.75;17.23;;;;;;;16.21;50.88;102655.98;1735369;82;21506;-52
2021/10/28 18:14:30;;;;;;;18.37;15.70;;;;;;;16.21;50.93;102666.48;1734066;82;21053;-50
2021/10/28 18:16:58;;;;;;;18.32;15.85;;;;;;;16.21;50.94;102661.67;1725330;82;21023;-50
2021/10/28 18:19:26;;;;;;;26.15;17.07;;;;;;;16.21;50.93;102665.17;1738413;82;21043;-51
2021/10/28 18:21:55;;;;;;;21.80;17.00;;;;;;;16.20;50.95;102660.80;1737813;82;21613;-49
2021/10/28 18:24:23;;;;;;;19.65;16.93;;;;;;;16.22;50.91;102661.64;1735503;82;21567;-50
2021/10/28 18:26:50;;;;;;;20.85;16.70;;;;;;;16.25;50.82;102659.42;1734893;82;21527;-51
2021/10/28 18:29:17;;;;;;;18.45;16.27;;;;;;;16.24;50.80;102654.61;1742361;82;20971;-51
2021/10/28 18:31:44;;;;;;;20.97;16.32;;;;;;;16.24;50.76;102659.86;1732843;81;21058;-51
2021/10/28 18:34:11;;;;;;;18.15;16.23;;;;;;;16.25;50.68;102662.05;1738904;82;21018;-50
2021/10/28 18:36:38;;;;;;;18.57;16.57;;;;;;;16.22;50.58;102658.14;1738106;82;21034;-54
2021/10/28 18:39:08;;;;;;;18.95;15.88;;;;;;;16.21;50.42;102664.30;1735242;82;21066;-53
2021/10/28 18:41:34;;;;;;;20.32;16.05;;;;;;;16.19;50.30;102662.14;1735219;82;21046;-51
2021/10/28 18:44:02;;;;;;;20.50;16.27;;;;;;;16.16;50.31;102664.36;1735522;82;21612;-52
2021/10/28 18:46:28;;;;;;;18.80;15.40;;;;;;;16.13;50.39;102667.05;1733554;82;21526;-50
2021/10/28 18:49:00;;;;;;;17.17;15.30;;;;;;;16.10;50.47;102671.02;1738597;82;21031;-49
2021/10/28 18:51:26;;;;;;;20.60;16.00;;;;;;;16.07;50.59;102668.42;1738116;82;21518;-50
2021/10/28 18:53:54;;;;;;;19.82;15.85;;;;;;;16.04;50.68;102669.80;1736021;82;21041;-51
2021/10/28 18:56:21;;;;;;;17.48;15.50;;;;;;;16.03;50.88;102670.66;1734247;82;21070;-51
2021/10/28 18:58:48;;;;;;;18.45;14.93;;;;;;;16.01;51.02;102667.20;1734494;82;21070;-50
2021/10/28 19:01:16;;;;;;;18.40;15.38;;;;;;;16.01;51.18;102672.45;1748745;82;21558;-51
2021/10/28 19:03:44;;;;;;;16.82;15.03;;;;;;;16.00;51.35;102673.35;1742642;82;21536;-52
2021/10/28 19:06:12;;;;;;;20.77;15.85;;;;;;;15.99;51.46;102672.91;1737605;82;21493;-50
2021/10/28 19:08:39;;;;;;;21.62;16.52;;;;;;;15.98;51.57;102673.81;1736468;82;21042;-55
2021/10/28 19:11:09;;;;;;;21.87;16.85;;;;;;;15.97;51.60;102673.38;1738799;82;20999;-51
2021/10/28 19:13:39;;;;;;;16.75;14.50;;;;;;;15.97;51.65;102673.38;1738950;82;21006;-51
2021/10/28 19:16:07;;;;;;;17.67;15.18;;;;;;;15.96;51.78;102667.72;1678108;84;21490;-51
2021/10/28 19:18:33;;;;;;;17.10;15.30;;;;;;;15.96;51.81;102669.03;1681848;85;21037;-51
2021/10/28 19:21:02;;;;;;;20.57;15.48;;;;;;;15.97;51.83;102668.13;1677687;85;21628;-49
2021/10/28 19:23:28;;;;;;;18.65;14.87;;;;;;;15.97;51.88;102663.34;1677873;85;21811;-51
2021/10/28 19:25:55;;;;;;;18.77;15.18;;;;;;;15.96;51.88;102663.78;1676298;85;21073;-49
2021/10/28 19:28:24;;;;;;;19.65;15.13;;;;;;;15.96;51.91;102663.78;1676700;85;21025;-49
2021/10/28 19:30:55;;;;;;;19.40;15.50;;;;;;;15.96;51.93;102657.66;1674235;85;21089;-51
2021/10/28 19:35:57;;;;;;;19.73;14.43;;;;;;;15.95;51.92;102662.03;1606022;89;21055;-52
2021/10/28 19:38:44;;;;;;;17.62;14.40;;;;;;;15.95;51.98;102658.56;1598114;89;21089;-51
2021/10/28 19:41:20;;;;;;;17.82;14.75;;;;;;;15.95;51.99;102661.19;1607335;89;21044;-51
2021/10/28 19:46:26;;;;;;;16.85;15.05;;;;;;;15.92;52.07;102662.09;1611896;88;22520;-53
2021/10/28 19:48:53;;;;;;;17.75;15.15;;;;;;;15.92;52.08;102670.41;1604752;89;21110;-51
2021/10/28 19:51:20;;;;;;;16.35;14.65;;;;;;;15.90;52.24;102665.18;1605574;89;21132;-49
2021/10/28 19:53:47;;;;;;;17.17;15.55;;;;;;;15.89;52.36;102657.33;1605628;89;21091;-50
2021/10/28 19:56:17;;;;;;;17.70;14.90;;;;;;;15.88;52.51;102660.39;1605702;89;21547;-49
2021/10/28 19:58:50;;;;;;;18.12;14.63;;;;;;;15.87;52.53;102665.20;1572820;89;21065;-51
2021/10/28 20:14:27;;;;;;;19.27;15.43;;;;;;;15.88;52.92;102667.39;1551727;91;21057;-49
2021/10/28 20:22:18;;;;;;;16.15;14.05;;;;;;;15.89;52.89;102663.43;1551407;92;21104;-51